Hoppa till innehåll

METAR väder och rapporter - ESGG

Nedan listas information från vald flygplats. Andra METARs finns längre ned på sidan. Kontakta oss om någon saknas eller skriv in egen ICAO-kod.

Andra intressanta METARs

Klicka på önskad rubrik nedan för att visa nuvarande väder för den platsen.

Avstånd från stationen: NO 27kmESGG - Göteborg (Landvetter)
Uppdaterad: 2021-10-16 15:20
 Vind från V
Vind: V 30 km/h
Temperatur: 10°C
Vindavkylning: 7°C
Daggpunkt: 5°C
Luftfuktighet: 71%
Barometer: 1010 hPa
Moln: Övervägande molnigt
Sikt: 10 km
Molninformation: Övervägande molnigt 640 m
2021/10/16 13:20 ESGG 161320Z 26016KT 240V300 9999 BKN021 10/05 Q1010
Övervägande molnigt
Övervägande molnigt
  Visa detaljer för Göteborg (Landvetter)
Avstånd från stationen: N 28kmESGP - Göteborg (Säve)
Uppdaterad: 2021-10-16 16:00
 
unable to load ESGP data RC=404 Not Found
unable to load ESGP data RC=404 Not Found
  Visa detaljer för Göteborg (Säve)
Avstånd från stationen: NO 419kmESSA - Stockholm (Arlanda)
Uppdaterad: 2021-10-16 15:20
 Vind från VSV
Vind: VSV 26 km/h
Temperatur: 9°C
Vindavkylning: 6°C
Daggpunkt: 0°C
Luftfuktighet: 54%
Barometer: 1001 hPa
Summering: Klart
Sikt: mer än 10 km
2021/10/16 13:20 ESSA 161320Z 25014KT CAVOK 09/00 Q1001 NOSIG
Klart
Klart
  Visa detaljer för Stockholm (Arlanda)
Avstånd från stationen: ONO 404kmESSB - Stockholm (Bromma)
Uppdaterad: 2021-10-16 15:20
 Vind från V
Vind: V 24 km/h
Temperatur: 11°C
Daggpunkt: 1°C
Luftfuktighet: 50%
Barometer: 1002 hPa
Summering: Klart
Sikt: mer än 10 km
2021/10/16 13:20 ESSB 161320Z 26013KT CAVOK 11/01 Q1002
Klart
Klart
  Visa detaljer för Stockholm (Bromma)
Avstånd från stationen: ONO 323kmESKN - Stockholm (Skavsta)
Uppdaterad: 2021-10-16 15:20
 Vind från VSV
Vind: VSV 22 km/h
Temperatur: 10°C
Vindavkylning: 7°C
Daggpunkt: 5°C
Luftfuktighet: 71%
Barometer: 1004 hPa
Summering: Skurar i närheten
Moln: Några få moln
Sikt: 10 km
Molninformation: Några få moln 1433 m
2021/10/16 13:20 ESKN 161320Z 25012KT 9999 VCSH FEW047TCU 10/05 Q1004
Nearby showers, Några få moln
Nearby showers
Några få moln
  Visa detaljer för Stockholm (Skavsta)
Avstånd från stationen: SSO 238kmESMS - Malmö flygplats (Sturup)
Uppdaterad: 2021-10-16 15:20
 Vind från V
Vind: V 31 km/h
Temperatur: 12°C
Daggpunkt: 5°C
Luftfuktighet: 63%
Barometer: 1015 hPa
Moln: Genommulet
Sikt: 10 km
Molninformation: Några få moln 884 m
Genommulet 1737 m
2021/10/16 13:20 ESMS 161320Z 26017KT 9999 FEW029 OVC057 12/05 Q1015
Genommulet
Genommulet
  Visa detaljer för Malmö flygplats (Sturup)
Avstånd från stationen: O 382kmESSV - Visby flygplats
Uppdaterad: 2021-10-16 15:20
 Vind från V
Vind: V 35 km/h
Temperatur: 11°C
Daggpunkt: 6°C
Luftfuktighet: 72%
Barometer: 1006 hPa
Moln: Några få moln
Sikt: 10 km
Molninformation: Några få moln 853 m
2021/10/16 13:20 ESSV 161320Z 26019KT 9999 FEW028 11/06 Q1006
Några få moln
Några få moln
  Visa detaljer för Visby flygplats
Avstånd från stationen: NNO 92kmESGT - Trollhättan
Uppdaterad: 2021-10-16 12:20
Ej aktuell
 Vind från VNV
Vind: VNV 30 km/h
Temperatur: 12°C
Daggpunkt: 4°C
Luftfuktighet: 58%
Barometer: 1008 hPa
Moln: Delvis molnigt
Sikt: 10 km
Molninformation: Delvis molnigt 1036 m
2021/10/16 10:20 ESGT 161020Z 29016KT 9999 SCT034 12/04 Q1008
Delvis molnigt
Delvis molnigt
  Visa detaljer för Trollhättan
Avstånd från stationen: ONO 129kmESGJ - Jönköpings flygplats
Uppdaterad: 2021-10-16 09:50
Ej aktuell
 Vind från SV
Vind: SV 17 km/h
Temperatur: 7°C
Vindavkylning: 4°C
Daggpunkt: 6°C
Luftfuktighet: 93%
Barometer: 1007 hPa
Moln: Klart
Sikt: 10 km
2021/10/16 07:50 ESGJ 160750Z AUTO 22009KT 9999 NCD 07/06 Q1007
Klart
Klart
  Visa detaljer för Jönköpings flygplats
Avstånd från stationen: NNO 229kmESOK - Karlstad
Uppdaterad: 2021-10-16 15:20
 Vind från V
Vind: V 24 km/h
Temperatur: 10°C
Vindavkylning: 7°C
Daggpunkt: 2°C
Luftfuktighet: 58%
Barometer: 1005 hPa
Moln: Klart
Sikt: 10 km
2021/10/16 13:20 ESOK 161320Z AUTO 28013KT 9999 NCD 10/02 Q1005
Klart
Klart
  Visa detaljer för Karlstad
Avstånd från stationen: N 643kmESNZ - Östersund (Frösön)
Uppdaterad: 2021-10-16 13:50
Ej aktuell
 Vind från VNV
Vind: VNV 37 km/h
Temperatur: 4°C
Vindavkylning: -2°C
Daggpunkt: 1°C
Luftfuktighet: 81%
Barometer: 996 hPa
Moln: Genommulet
Sikt: 10 km
Molninformation: Delvis molnigt 610 m
Övervägande molnigt 914 m
Genommulet 1737 m
2021/10/16 11:50 ESNZ 161150Z 30020KT 9999 SCT020 BKN030 OVC057 04/01 Q0996
Genommulet
Genommulet
  Visa detaljer för Östersund (Frösön)
Avstånd från stationen: SSO 216kmEKCH - Köpenhamn (Kastrup)
Uppdaterad: 2021-10-16 10:20
Ej aktuell
 Vind från VSV
Vind: VSV 24 km/h
Temperatur: 10°C
Vindavkylning: 7°C
Daggpunkt: 6°C
Luftfuktighet: 76%
Barometer: 1016 hPa
Moln: Klart
Sikt: 10 km
2021/10/16 08:20 EKCH 160820Z AUTO 25013KT 9999 NCD 10/06 Q1016 NOSIG
Klart
Klart
  Visa detaljer för Köpenhamn (Kastrup)
Avstånd från stationen: SV 263kmEKBI - Billund Airport
Uppdaterad: 2021-10-16 14:50
 Vind från VSV
Vind: VSV 24 km/h
Temperatur: 11°C
Daggpunkt: 5°C
Luftfuktighet: 67%
Barometer: 1016 hPa
Moln: Delvis molnigt
Sikt: 10 km
Molninformation: Några få moln 610 m
Delvis molnigt 1524 m
2021/10/16 12:50 EKBI 161250Z 25013KT 9999 FEW020TCU SCT050 11/05 Q1016
Delvis molnigt
Delvis molnigt
  Visa detaljer för Billund Airport
Avstånd från stationen: N 302kmENGM - Oslo (Gardermoen)
Uppdaterad: 2021-10-16 15:20
 Vind från VSV
Vind: VSV 15 km/h
Temperatur: 11°C
Daggpunkt: -4°C
Luftfuktighet: 35%
Barometer: 1004 hPa
Summering: Klart
Sikt: mer än 10 km
2021/10/16 13:20 ENGM 161320Z 24008KT 210V290 CAVOK 11/M04 Q1004 NOSIG
Klart
Klart
  Visa detaljer för Oslo (Gardermoen)
Avstånd från stationen: NO 540kmEFMA - Mariehamn / Åland
Uppdaterad: 2021-10-16 15:20
 Vind från V
Vind: V 17 km/h
Vindby: 35 km/h
Temperatur: 9°C
Vindavkylning: 7°C
Daggpunkt: 1°C
Luftfuktighet: 58%
Barometer: 1000 hPa
Summering: Klart
Sikt: mer än 10 km
2021/10/16 13:20 EFMA 161320Z AUTO 26009G19KT 210V290 CAVOK 09/01 Q1000
Klart
Klart
  Visa detaljer för Mariehamn / Åland
Avstånd från stationen: S 558kmEDDT - Berlin (Tegel), Germany
Uppdaterad: 2021-10-16 16:00
 
unable to load EDDT data RC=404 Not Found
unable to load EDDT data RC=404 Not Found
  Visa detaljer för Berlin (Tegel), Germany
Avstånd från stationen: SV 737kmEHAM - Amsterdam (Schiphol)
Uppdaterad: 2021-10-16 15:25
 Vind från SSV
Vind: SSV 20 km/h
Temperatur: 14°C
Daggpunkt: 7°C
Luftfuktighet: 63%
Barometer: 1020 hPa
Moln: Några få moln
Sikt: 10 km
Molninformation: Några få moln 975 m
2021/10/16 13:25 EHAM 161325Z 20011KT 170V230 9999 FEW032 14/07 Q1020 NOSIG
Några få moln
Några få moln
  Visa detaljer för Amsterdam (Schiphol)
Avstånd från stationen: ONO 808kmEFHK - Helsingfors (Vantaa)
Uppdaterad: 2021-10-16 15:20
 Vind från VSV
Vind: VSV 28 km/h
Temperatur: 9°C
Vindavkylning: 6°C
Daggpunkt: 0°C
Luftfuktighet: 54%
Barometer: 998 hPa
Moln: Några få moln
Sikt: 10 km
Molninformation: Några få moln 1372 m
2021/10/16 13:20 EFHK 161320Z 25015KT 9999 FEW045 09/M00 Q0998 NOSIG
Några få moln
Några få moln
  Visa detaljer för Helsingfors (Vantaa)
Avstånd från stationen: SSV 537kmEDDW - Bremen
Uppdaterad: 2021-10-16 15:20
 Vind från SV
Vind: SV 17 km/h
Temperatur: 11°C
Daggpunkt: 6°C
Luftfuktighet: 72%
Barometer: 1021 hPa
Moln: Övervägande molnigt
Sikt: 10 km
Molninformation: Övervägande molnigt 1463 m
2021/10/16 13:20 EDDW 161320Z 23009KT 9999 BKN048 11/06 Q1021 NOSIG
Övervägande molnigt
Övervägande molnigt
  Visa detaljer för Bremen
Avstånd från stationen: SSV 861kmEDDF - Frankfurt am Main
Uppdaterad: 2021-10-16 15:20
 Vind från O
Vind: O 7 km/h
Temperatur: 14°C
Daggpunkt: 4°C
Luftfuktighet: 51%
Barometer: 1021 hPa
Moln: Några få moln
Sikt: 10 km
Molninformation: Några få moln 975 m
2021/10/16 13:20 EDDF 161320Z 08004KT 010V130 9999 FEW032 14/04 Q1021 NOSIG
Några få moln
Några få moln
  Visa detaljer för Frankfurt am Main
Avstånd från stationen: SV 880kmEBBR - Bryssel international
Uppdaterad: 2021-10-16 15:20
 Vind från NO
Vind: NO 4 km/h
Temperatur: 12°C
Daggpunkt: 4°C
Luftfuktighet: 58%
Barometer: 1022 hPa
Moln: Övervägande molnigt
Sikt: 10 km
Molninformation: Övervägande molnigt 1463 m
2021/10/16 13:20 EBBR 161320Z 04002KT 9999 BKN048 12/04 Q1022 NOSIG
Övervägande molnigt
Övervägande molnigt
  Visa detaljer för Bryssel international
Avstånd från stationen: SV 738kmEHAM - Amsterdam (Schiphol)
Uppdaterad: 2021-10-16 15:25
 Vind från SSV
Vind: SSV 20 km/h
Temperatur: 14°C
Daggpunkt: 7°C
Luftfuktighet: 63%
Barometer: 1020 hPa
Moln: Några få moln
Sikt: 10 km
Molninformation: Några få moln 975 m
2021/10/16 13:25 EHAM 161325Z 20011KT 170V230 9999 FEW032 14/07 Q1020 NOSIG
Några få moln
Några få moln
  Visa detaljer för Amsterdam (Schiphol)
Avstånd från stationen: SV 1044kmEGLL - London (Heathrow)
Uppdaterad: 2021-10-16 15:20
 Vind från OSO
Vind: OSO 7 km/h
Temperatur: 16°C
Daggpunkt: 12°C
Luftfuktighet: 77%
Barometer: 1019 hPa
Moln: Delvis molnigt
Sikt: 10 km
Molninformation: Delvis molnigt 427 m
2021/10/16 13:20 EGLL 161320Z AUTO 12004KT 100V170 9999 SCT014 16/12 Q1019 NOSIG
Delvis molnigt
Delvis molnigt
  Visa detaljer för London (Heathrow)
Avstånd från stationen: SV 1132kmLFPG - Paris (Charles de Gaulle)
Uppdaterad: 2021-10-16 15:30
 Vind från varierande
Vind: varierande 4 km/h
Temperatur: 16°C
Daggpunkt: 6°C
Luftfuktighet: 52%
Barometer: 1021 hPa
Moln: Några få moln
Sikt: 10 km
Molninformation: Några få moln 1311 m
2021/10/16 13:30 LFPG 161330Z VRB02KT 9999 FEW043 16/06 Q1021 NOSIG
Några få moln
Några få moln
  Visa detaljer för Paris (Charles de Gaulle)
Avstånd från stationen: SSV 1142kmLSZH - Zürich Airport
Uppdaterad: 2021-10-16 15:20
 Vind från NNO
Vind: NNO 9 km/h
Temperatur: 14°C
Daggpunkt: 7°C
Luftfuktighet: 63%
Barometer: 1019 hPa
Moln: Några få moln
Sikt: 10 km
Molninformation: Några få moln 762 m
2021/10/16 13:20 LSZH 161320Z 03005KT 360V060 9999 FEW025 14/07 Q1019 NOSIG
Några få moln
Några få moln
  Visa detaljer för Zürich Airport
Avstånd från stationen: S 1749kmLIRF - Rome Airport (Fiumicino - Leonardo da Vinci)
Uppdaterad: 2021-10-16 15:20
 Vind från SV
Vind: SV 11 km/h
Temperatur: 20°C
Daggpunkt: 9°C
Luftfuktighet: 49%
Barometer: 1015 hPa
Moln: Delvis molnigt
Sikt: 10 km
Molninformation: Delvis molnigt 1524 m
2021/10/16 13:20 LIRF 161320Z 22006KT 140V260 9999 SCT050 20/09 Q1015 NOSIG
Delvis molnigt
Delvis molnigt
  Visa detaljer för Rome Airport (Fiumicino - Leonardo da Vinci)
Avstånd från stationen: SO 2679kmLTAI - Antalya
Uppdaterad: 2021-10-16 15:20
 Vind från SSO
Vind: SSO 22 km/h
Temperatur: 25°C
Daggpunkt: 16°C
Luftfuktighet: 57%
Barometer: 1013 hPa
Moln: Övervägande molnigt
Sikt: 10 km
Molninformation: Några få moln 610 m
Övervägande molnigt 914 m
2021/10/16 13:20 LTAI 161320Z 16012KT 9999 FEW020CB BKN030 25/16 Q1013 NOSIG RMK RWY18C 15013KT 120V180 RWY36R 16014KT RWY18L 16013KT 130V190
Övervägande molnigt
Övervägande molnigt
  Visa detaljer för Antalya
Avstånd från stationen: VSV 6074kmKJFK - New Your (JFK)
Uppdaterad: 2021-10-16 14:51
 Vind från S
Vind: S 31 km/h
Temperatur: 22°C
Daggpunkt: 18°C
Luftfuktighet: 78%
Barometer: 1009.5 hPa
Moln: Delvis molnigt
Sikt: 16 km
Molninformation: Delvis molnigt 3658 m
Delvis molnigt 7620 m
2021/10/16 12:51 KJFK 161251Z 18017KT 10SM SCT120 SCT250 22/18 A2981 RMK AO2 SLP094 T02170178
Delvis molnigt
Delvis molnigt
  Visa detaljer för New Your (JFK)
Avstånd från stationen: VSV 8848kmKLAX - Los Angeles International Airport
Uppdaterad: 2021-10-16 14:53
 Vind från NO
Vind: NO 9 km/h
Temperatur: 17°C
Daggpunkt: -4°C
Luftfuktighet: 24%
Barometer: 1015.6 hPa
Moln: Klart
Sikt: 16 km
2021/10/16 12:53 KLAX 161253Z 05005KT 10SM CLR 17/M04 A2999 RMK AO2 SLP151 T01721044
Klart
Klart
  Visa detaljer för Los Angeles International Airport
Avstånd från stationen: SO 4968kmOMDB - Dubai International Airport
Uppdaterad: 2021-10-16 15:00
 Vind från NNV
Vind: NNV 17 km/h
Temperatur: 33°C
Värmeindex: 38°C
Daggpunkt: 23°C
Luftfuktighet: 56%
Barometer: 1004 hPa
Moln: Delvis molnigt
Sikt: 8 km
2021/10/16 13:00 OMDB 161300Z 33009KT 8000 NSC 33/23 Q1004 NOSIG
Delvis molnigt
Delvis molnigt
  Visa detaljer för Dubai International Airport
Avstånd från stationen: OSO 8570kmRJTT - Tokyo International Airport
Uppdaterad: 2021-10-16 15:00
 Vind från SSV
Vind: SSV 20 km/h
Temperatur: 22°C
Daggpunkt: 21°C
Luftfuktighet: 94%
Barometer: 1008 hPa
Moln: Delvis molnigt
Sikt: 10 km
Molninformation: Några få moln 244 m
Delvis molnigt 366 m
2021/10/16 13:00 RJTT 161300Z 20011KT 9999 FEW008 SCT012 22/21 Q1008 NOSIG
Delvis molnigt
Delvis molnigt
  Visa detaljer för Tokyo International Airport
Avstånd från stationen: OSO 7125kmZBAA - Peking (Beijing Capital)
Uppdaterad: 2021-10-16 15:00
 Vind från varierande
Vind: varierande 4 km/h
Temperatur: 4°C
Daggpunkt: -6°C
Luftfuktighet: 48%
Barometer: 1037 hPa
Summering: Klart
Sikt: mer än 10 km
2021/10/16 13:00 ZBAA 161300Z VRB01MPS CAVOK 04/M06 Q1037 NOSIG
Klart
Klart
  Visa detaljer för Peking (Beijing Capital)
VÄDER KURIOSA -  Weather TermsGustnado - A gust front tornado. A small, weak, short-lived tornado that occurs along a gust front - the leading edge of a thunderstorm, caused by rain-cooled air flowing out from the storm's downdraft. A gustnado is often visible as a debris cloud or dust whirl.